Time;durP1;ratioP1;P1;durP2;ratioP2;P2;SDS_P1;SDS_P2;PMS_P1;PMS_P2;Temp;Humidity;BMP_temperature;BMP_pressure;BME280_temperature;BME280_humidity;BME280_pressure;Samples;Min_cycle;Max_cycle;Signal;HPM_P1;HPM_P2
2021/04/09 00:02:11;;;;;;;5.10;2.72;;;17.80;48.10;;;;;;10500225;28;20032;-59
2021/04/09 00:07:12;;;;;;;4.15;3.00;;;17.80;48.10;;;;;;10500487;28;20078;-59
2021/04/09 00:12:13;;;;;;;4.85;2.67;;;17.80;47.90;;;;;;10500259;28;20434;-59
2021/04/09 00:17:14;;;;;;;4.43;3.15;;;17.80;47.90;;;;;;10482208;28;20090;-59
2021/04/09 00:22:14;;;;;;;4.53;2.83;;;17.80;47.80;;;;;;10507123;28;20108;-59
2021/04/09 00:27:16;;;;;;;4.32;2.85;;;17.80;47.70;;;;;;10499046;28;20036;-59
2021/04/09 00:32:16;;;;;;;4.53;2.60;;;17.80;47.50;;;;;;10499275;28;20029;-59
2021/04/09 00:37:17;;;;;;;5.65;2.88;;;17.70;47.40;;;;;;10499017;28;20419;-59
2021/04/09 00:42:20;;;;;;;4.90;3.38;;;17.80;47.30;;;;;;10498675;28;20431;-59
2021/04/09 00:47:20;;;;;;;5.40;3.58;;;17.80;47.20;;;;;;10498424;28;20039;-59
2021/04/09 00:52:22;;;;;;;6.40;3.58;;;17.80;47.10;;;;;;10500303;28;20437;-58
2021/04/09 00:57:23;;;;;;;6.03;2.97;;;17.80;47.10;;;;;;10467584;28;20082;-58
2021/04/09 01:02:24;;;;;;;4.03;3.00;;;17.80;47.00;;;;;;10480662;28;20145;-58
2021/04/09 01:07:26;;;;;;;4.63;2.67;;;17.80;47.00;;;;;;10479800;28;20110;-58
2021/04/09 01:12:26;;;;;;;3.90;2.55;;;17.80;47.10;;;;;;10497783;28;20078;-59
2021/04/09 01:18:08;;;;;;;6.65;3.30;;;17.80;47.10;;;;;;10497184;28;20041;-59
2021/04/09 01:23:34;;;;;;;6.30;3.08;;;17.80;47.10;;;;;;10497280;28;20457;-59
2021/04/09 01:28:59;;;;;;;3.78;2.78;;;17.80;47.00;;;;;;10455802;28;20092;-58
2021/04/09 01:34:02;;;;;;;6.45;3.38;;;17.80;47.00;;;;;;10496945;28;20051;-59
2021/04/09 01:39:19;;;;;;;3.90;2.67;;;17.80;47.00;;;;;;10478729;28;20431;-59
2021/04/09 01:44:24;;;;;;;3.97;3.00;;;17.80;46.90;;;;;;10479385;28;20479;-59
2021/04/09 01:49:31;;;;;;;4.18;2.95;;;17.80;47.50;;;;;;10478601;28;20039;-59
2021/04/09 01:54:33;;;;;;;5.38;2.90;;;17.90;48.50;;;;;;10468232;28;20036;-59
2021/04/09 01:59:37;;;;;;;4.65;3.22;;;17.90;49.30;;;;;;10478803;28;20115;-59
2021/04/09 02:04:38;;;;;;;4.57;2.80;;;17.90;49.50;;;;;;10474534;28;20082;-59
2021/04/09 02:09:39;;;;;;;7.05;2.92;;;17.90;49.80;;;;;;10478716;28;20056;-58
2021/04/09 02:14:46;;;;;;;5.10;2.83;;;17.90;49.80;;;;;;10477391;28;20112;-58
2021/04/09 02:19:47;;;;;;;3.70;2.78;;;17.80;49.80;;;;;;10478017;28;20040;-59
2021/04/09 02:24:48;;;;;;;5.28;3.05;;;17.80;49.80;;;;;;10495904;28;20086;-59
2021/04/09 02:29:50;;;;;;;4.90;3.00;;;17.80;49.90;;;;;;10495888;28;20102;-59
2021/04/09 02:34:50;;;;;;;5.00;2.75;;;17.80;49.80;;;;;;10478134;28;20135;-58
2021/04/09 02:39:58;;;;;;;4.25;2.47;;;17.80;49.80;;;;;;10481051;28;20099;-58
2021/04/09 02:44:59;;;;;;;5.90;2.92;;;17.80;49.80;;;;;;10495749;28;20442;-59
2021/04/09 02:50:09;;;;;;;4.30;2.70;;;17.80;49.80;;;;;;10495522;28;20024;-58
2021/04/09 02:55:15;;;;;;;4.00;2.72;;;17.80;49.70;;;;;;10516760;28;20036;-59
2021/04/09 03:00:17;;;;;;;4.47;2.97;;;17.80;49.60;;;;;;10484877;28;20456;-58
2021/04/09 03:05:20;;;;;;;4.85;2.65;;;17.80;49.50;;;;;;10485215;28;20568;-59
2021/04/09 03:10:21;;;;;;;5.63;2.78;;;17.80;49.40;;;;;;10484900;28;20024;-59
2021/04/09 03:15:26;;;;;;;4.22;2.70;;;17.80;49.40;;;;;;10502479;28;20036;-58
2021/04/09 03:20:27;;;;;;;5.00;2.47;;;17.80;49.20;;;;;;10502176;28;20506;-58
2021/04/09 03:25:28;;;;;;;4.07;2.70;;;17.80;49.10;;;;;;10502006;28;20044;-59
2021/04/09 03:30:28;;;;;;;3.97;2.88;;;17.80;49.10;;;;;;10502279;28;20108;-59
2021/04/09 03:35:29;;;;;;;4.45;2.97;;;17.80;49.00;;;;;;10501806;28;20044;-59
2021/04/09 03:40:30;;;;;;;3.60;2.72;;;17.70;48.80;;;;;;10501510;28;20028;-59
2021/04/09 03:45:31;;;;;;;4.88;3.03;;;17.80;48.80;;;;;;10501618;28;20029;-59
2021/04/09 03:50:32;;;;;;;4.25;2.78;;;17.80;48.80;;;;;;10501026;28;20508;-59
2021/04/09 03:55:33;;;;;;;5.78;3.17;;;17.70;48.60;;;;;;10500927;28;20033;-59
2021/04/09 04:00:33;;;;;;;4.47;2.85;;;17.80;48.60;;;;;;10500994;28;20483;-59
2021/04/09 04:05:34;;;;;;;3.65;2.83;;;17.80;48.40;;;;;;10499913;28;20032;-59
2021/04/09 04:10:35;;;;;;;3.47;2.70;;;17.80;48.30;;;;;;10500476;28;20091;-58
2021/04/09 04:15:35;;;;;;;5.82;2.85;;;17.80;48.30;;;;;;10500138;28;20107;-59
2021/04/09 04:20:36;;;;;;;4.18;2.97;;;17.80;48.30;;;;;;10499849;28;20036;-59
2021/04/09 04:25:37;;;;;;;2.97;2.30;;;17.80;48.30;;;;;;10513782;28;20039;-59
2021/04/09 04:30:38;;;;;;;4.80;3.13;;;17.80;48.40;;;;;;10499233;28;20129;-59
2021/04/09 04:35:38;;;;;;;3.10;2.28;;;17.80;48.40;;;;;;10499244;28;20052;-58
2021/04/09 04:40:39;;;;;;;4.13;2.92;;;17.80;48.40;;;;;;10499144;28;20086;-59
2021/04/09 04:45:40;;;;;;;5.22;2.80;;;17.80;48.40;;;;;;10499064;28;20115;-58
2021/04/09 04:50:42;;;;;;;4.20;2.65;;;17.80;48.40;;;;;;10509336;28;20024;-58
2021/04/09 04:55:43;;;;;;;3.20;2.42;;;17.80;48.50;;;;;;10483631;28;20028;-59
2021/04/09 05:00:44;;;;;;;5.10;2.95;;;17.80;48.40;;;;;;10478472;28;20112;-58
2021/04/09 05:05:44;;;;;;;4.28;2.42;;;17.80;48.30;;;;;;10498455;28;20032;-59
2021/04/09 05:10:45;;;;;;;3.97;2.88;;;17.80;48.30;;;;;;10497446;28;20099;-59
2021/04/09 05:15:46;;;;;;;4.20;3.00;;;17.80;48.40;;;;;;10497127;28;20474;-59
2021/04/09 05:20:47;;;;;;;4.53;3.00;;;17.80;48.50;;;;;;10496893;28;20108;-59
2021/04/09 05:25:47;;;;;;;4.47;3.28;;;17.70;48.50;;;;;;10497108;28;20028;-58
2021/04/09 05:30:48;;;;;;;10.18;3.20;;;17.70;48.50;;;;;;10479030;28;20107;-57
2021/04/09 05:35:49;;;;;;;6.22;3.10;;;17.70;50.20;;;;;;10496884;28;20041;-58
2021/04/09 05:40:49;;;;;;;5.93;3.35;;;17.80;51.40;;;;;;10496501;28;20025;-58
2021/04/09 05:45:50;;;;;;;8.05;4.03;;;17.80;52.00;;;;;;10496272;28;20115;-57
2021/04/09 05:50:51;;;;;;;7.78;3.38;;;17.90;52.40;;;;;;10495345;28;20016;-57
2021/04/09 05:55:52;;;;;;;10.10;4.13;;;17.90;52.80;;;;;;10497048;28;20074;-58
2021/04/09 06:00:53;;;;;;;12.65;4.20;;;17.80;53.60;;;;;;10497037;28;20128;-61
2021/04/09 06:05:54;;;;;;;10.05;3.92;;;17.90;53.40;;;;;;10496314;28;20116;-58
2021/04/09 06:10:54;;;;;;;10.60;4.00;;;17.90;53.10;;;;;;10495754;28;20099;-58
2021/04/09 06:15:55;;;;;;;13.00;3.88;;;17.90;53.10;;;;;;10486876;28;20029;-61
2021/04/09 06:20:56;;;;;;;12.52;3.90;;;18.00;52.20;;;;;;10490830;28;20453;-57
2021/04/09 06:25:57;;;;;;;21.80;4.38;;;18.20;51.80;;;;;;10495560;28;20021;-58
2021/04/09 06:30:58;;;;;;;20.02;3.95;;;18.20;51.50;;;;;;10502879;28;20460;-59
2021/04/09 06:35:58;;;;;;;12.27;3.75;;;18.30;51.40;;;;;;10511489;28;20045;-59
2021/04/09 06:40:59;;;;;;;13.30;3.85;;;18.30;51.10;;;;;;10483540;28;20086;-58
2021/04/09 06:46:00;;;;;;;15.70;3.65;;;18.30;51.00;;;;;;10500460;28;20029;-59
2021/04/09 06:51:02;;;;;;;8.23;3.53;;;18.30;50.80;;;;;;10501098;28;20029;-59
2021/04/09 06:56:03;;;;;;;9.05;3.22;;;18.30;50.50;;;;;;10502992;28;20193;-59
2021/04/09 07:01:04;;;;;;;8.90;3.00;;;18.30;50.60;;;;;;10502724;28;20086;-59
2021/04/09 07:06:05;;;;;;;14.07;3.40;;;18.30;50.40;;;;;;10509582;28;20432;-59
2021/04/09 07:11:07;;;;;;;7.75;3.28;;;18.30;50.30;;;;;;10492153;28;20098;-58
2021/04/09 07:16:08;;;;;;;8.73;3.13;;;18.30;50.50;;;;;;10498100;28;20056;-59
2021/04/09 07:21:30;;;;;;;9.57;2.88;;;18.30;51.10;;;;;;10500066;28;20361;-58
2021/04/09 07:26:44;;;;;;;9.32;2.92;;;18.30;51.20;;;;;;10499385;28;20127;-59
2021/04/09 07:31:45;;;;;;;10.85;3.40;;;18.30;51.30;;;;;;10500662;28;20032;-58
2021/04/09 07:36:56;;;;;;;12.60;3.80;;;18.30;51.40;;;;;;10498494;28;20109;-58
2021/04/09 07:42:08;;;;;;;9.10;3.63;;;18.30;51.70;;;;;;10501221;28;20032;-59
2021/04/09 07:47:15;;;;;;;7.68;3.17;;;18.30;51.80;;;;;;10479167;28;20040;-59
2021/04/09 07:52:16;;;;;;;8.00;3.38;;;18.30;51.70;;;;;;10496896;28;20044;-61
2021/04/09 07:57:29;;;;;;;8.23;3.75;;;18.30;51.90;;;;;;10470804;28;20036;-59
2021/04/09 08:02:39;;;;;;;6.95;3.08;;;18.30;52.20;;;;;;10499962;28;20103;-60
2021/04/09 08:07:41;;;;;;;8.35;3.13;;;18.30;51.90;;;;;;10482266;28;20037;-59
2021/04/09 08:12:49;;;;;;;11.65;3.30;;;18.30;52.60;;;;;;10500112;28;20024;-58
2021/04/09 08:18:27;;;;;;;11.38;3.40;;;18.30;53.40;;;;;;10480095;28;20025;-61
2021/04/09 08:23:28;;;;;;;10.93;2.80;;;18.30;53.70;;;;;;10499593;28;20039;-62
2021/04/09 08:28:29;;;;;;;8.57;2.97;;;18.30;52.50;;;;;;10499549;28;20345;-61
2021/04/09 08:33:29;;;;;;;12.57;3.45;;;18.30;52.20;;;;;;10499312;28;20725;-59
2021/04/09 08:38:31;;;;;;;7.97;3.00;;;18.30;51.90;;;;;;10481133;28;20040;-58
2021/04/09 08:43:33;;;;;;;8.93;2.47;;;18.30;51.80;;;;;;10499247;28;20032;-59
2021/04/09 08:48:37;;;;;;;6.93;2.55;;;18.20;51.60;;;;;;10480598;28;20114;-59
2021/04/09 08:53:37;;;;;;;6.30;2.85;;;18.30;51.60;;;;;;10481300;28;20103;-59
2021/04/09 08:58:46;;;;;;;5.85;2.72;;;18.20;51.40;;;;;;10498622;28;20462;-59
2021/04/09 09:03:47;;;;;;;8.63;3.37;;;18.20;51.40;;;;;;10484869;28;20032;-58
2021/04/09 09:08:51;;;;;;;6.38;2.60;;;18.20;51.50;;;;;;10470420;28;20119;-59
2021/04/09 09:13:51;;;;;;;6.60;2.33;;;18.20;51.50;;;;;;10497154;28;20024;-59
2021/04/09 09:18:57;;;;;;;4.40;1.73;;;18.20;51.60;;;;;;10497885;28;20123;-59
2021/04/09 09:24:01;;;;;;;10.32;2.38;;;18.10;51.60;;;;;;10496913;28;20027;-59
2021/04/09 09:29:08;;;;;;;5.60;2.90;;;18.10;51.50;;;;;;10496780;28;20105;-64
2021/04/09 09:34:20;;;;;;;6.65;2.63;;;18.00;51.60;;;;;;10494993;28;20055;-60
2021/04/09 09:40:03;;;;;;;7.40;2.83;;;18.00;51.70;;;;;;10475501;28;20502;-59
2021/04/09 09:45:09;;;;;;;8.27;2.63;;;18.10;52.50;;;;;;10490072;28;20055;-61
2021/04/09 09:50:26;;;;;;;11.98;2.90;;;18.10;53.30;;;;;;10470141;28;20031;-60
2021/04/09 09:55:35;;;;;;;6.93;2.40;;;18.10;53.10;;;;;;10494010;28;20037;-60
2021/04/09 10:00:40;;;;;;;;;;;18.10;53.60;;;;;;10495076;28;20030;-60
2021/04/09 10:05:46;;;;;;;8.93;2.65;;;18.10;53.80;;;;;;10494970;28;19935;-61
2021/04/09 10:10:54;;;;;;;7.55;2.90;;;18.00;54.90;;;;;;10478189;28;20032;-60
2021/04/09 10:16:22;;;;;;;8.05;2.47;;;18.00;54.40;;;;;;10483350;28;20035;-60
2021/04/09 10:21:28;;;;;;;13.75;3.08;;;18.00;54.70;;;;;;10495737;28;20068;-60
2021/04/09 10:26:29;;;;;;;10.02;2.95;;;18.00;55.90;;;;;;10495885;28;20453;-59
2021/04/09 10:31:33;;;;;;;14.13;3.47;;;18.10;56.20;;;;;;10478225;28;20119;-63
2021/04/09 10:36:37;;;;;;;8.95;3.13;;;18.10;56.50;;;;;;10495873;28;20040;-63
2021/04/09 10:41:42;;;;;;;16.17;3.00;;;18.10;56.40;;;;;;10496101;28;20187;-64
2021/04/09 10:47:06;;;;;;;9.82;2.88;;;18.00;56.00;;;;;;10495722;28;20536;-57
2021/04/09 10:52:13;;;;;;;6.53;1.90;;;18.00;54.80;;;;;;10495387;28;20107;-61
2021/04/09 10:57:19;;;;;;;12.80;2.70;;;17.90;54.90;;;;;;10494862;28;20111;-60
2021/04/09 11:02:25;;;;;;;13.40;2.30;;;17.80;55.10;;;;;;10494887;28;20484;-63
2021/04/09 11:07:47;;;;;;;5.53;2.03;;;17.80;55.10;;;;;;10461404;28;20473;-64
2021/04/09 11:12:48;;;;;;;15.77;3.25;;;17.80;55.30;;;;;;10491693;28;20036;-62
2021/04/09 11:18:00;;;;;;;11.63;3.30;;;17.80;55.60;;;;;;10502616;28;20029;-63
2021/04/09 11:23:13;;;;;;;14.35;2.83;;;17.80;55.70;;;;;;10483025;28;20040;-66
2021/04/09 11:28:28;;;;;;;17.63;3.80;;;17.80;55.50;;;;;;10501449;28;20115;-68
2021/04/09 11:33:40;;;;;;;28.90;3.22;;;17.80;55.50;;;;;;10499462;28;20040;-71
2021/04/09 11:38:41;;;;;;;16.55;2.80;;;17.80;55.80;;;;;;10470555;28;20070;-65
2021/04/09 11:43:41;;;;;;;10.25;2.20;;;17.70;55.80;;;;;;10501441;28;20424;-60
2021/04/09 11:48:43;;;;;;;10.70;2.80;;;17.70;55.40;;;;;;10483861;28;20028;-62
2021/04/09 11:54:01;;;;;;;10.05;2.00;;;17.70;54.90;;;;;;10501425;28;20103;-66
2021/04/09 11:59:16;;;;;;;10.70;2.10;;;17.70;54.80;;;;;;10484048;28;20059;-65
2021/04/09 12:04:37;;;;;;;12.00;2.70;;;17.80;54.70;;;;;;10500397;28;20024;-66
2021/04/09 12:09:38;;;;;;;5.85;1.77;;;17.80;54.50;;;;;;10500347;28;20089;-65
2021/04/09 12:14:48;;;;;;;8.45;2.72;;;17.80;54.30;;;;;;10500556;28;20115;-63
2021/04/09 12:19:51;;;;;;;6.03;2.10;;;17.80;53.90;;;;;;10497822;28;20068;-67
2021/04/09 12:24:52;;;;;;;14.38;2.38;;;17.80;53.80;;;;;;10497303;28;20116;-64
2021/04/09 12:29:53;;;;;;;16.10;3.38;;;17.80;54.10;;;;;;10499603;28;20029;-65
2021/04/09 12:34:54;;;;;;;13.90;3.00;;;17.80;54.80;;;;;;10499437;28;20044;-62
2021/04/09 12:39:55;;;;;;;15.55;3.10;;;17.80;54.90;;;;;;10499404;28;20427;-64
2021/04/09 12:44:56;;;;;;;13.80;2.83;;;17.80;54.50;;;;;;10479057;28;20032;-64
2021/04/09 12:49:56;;;;;;;14.63;2.83;;;17.80;54.60;;;;;;10497199;28;20020;-65
2021/04/09 12:54:57;;;;;;;16.13;2.63;;;17.70;54.50;;;;;;10497365;28;20023;-64
2021/04/09 12:59:58;;;;;;;11.23;2.70;;;17.70;54.60;;;;;;10480484;28;20389;-61
2021/04/09 13:04:59;;;;;;;12.32;3.50;;;17.70;54.60;;;;;;10498912;28;20135;-60
2021/04/09 13:10:00;;;;;;;13.32;4.15;;;17.70;54.90;;;;;;10498032;28;20043;-60
2021/04/09 13:15:01;;;;;;;12.45;2.53;;;17.70;54.70;;;;;;10491760;28;20031;-60
2021/04/09 13:20:02;;;;;;;18.00;3.72;;;17.70;55.20;;;;;;10496257;28;20024;-56
2021/04/09 13:25:03;;;;;;;12.70;3.40;;;17.70;56.10;;;;;;10495892;28;20036;-57
2021/04/09 13:30:06;;;;;;;11.43;2.53;;;17.70;55.40;;;;;;10476683;28;20060;-58
2021/04/09 13:35:08;;;;;;;12.32;2.22;;;17.70;56.20;;;;;;10496728;28;20044;-60
2021/04/09 13:40:10;;;;;;;21.98;4.07;;;17.80;56.10;;;;;;10479279;28;20086;-58
2021/04/09 13:45:11;;;;;;;15.27;2.95;;;17.80;55.90;;;;;;10478460;28;20020;-57
2021/04/09 13:50:13;;;;;;;10.90;2.65;;;17.80;56.60;;;;;;10496781;28;20036;-60
2021/04/09 13:55:13;;;;;;;14.65;4.82;;;17.80;55.60;;;;;;10469278;28;20473;-59
2021/04/09 14:00:15;;;;;;;11.75;2.30;;;17.80;55.60;;;;;;10496579;28;20040;-59
2021/04/09 14:05:16;;;;;;;20.42;3.33;;;17.80;55.80;;;;;;10455158;28;20024;-58
2021/04/09 14:10:18;;;;;;;9.60;2.67;;;17.90;56.10;;;;;;10478844;28;20050;-62
2021/04/09 14:15:20;;;;;;;12.98;3.22;;;17.80;56.30;;;;;;10474224;28;20056;-61
2021/04/09 14:20:23;;;;;;;22.45;2.75;;;17.80;56.70;;;;;;10496489;28;20031;-61
2021/04/09 14:25:24;;;;;;;21.92;3.80;;;17.80;57.00;;;;;;10496111;28;20476;-61
2021/04/09 14:30:26;;;;;;;13.45;2.38;;;17.80;56.90;;;;;;10496017;28;20070;-63
2021/04/09 14:35:27;;;;;;;18.73;3.42;;;17.80;57.30;;;;;;10496007;28;20058;-63
2021/04/09 14:40:28;;;;;;;17.45;5.00;;;17.80;57.50;;;;;;10495708;28;20035;-61
2021/04/09 14:45:35;;;;;;;20.77;3.08;;;17.90;57.70;;;;;;10477830;28;20111;-63
2021/04/09 14:50:36;;;;;;;25.95;3.47;;;17.80;58.20;;;;;;10503012;28;20062;-63
2021/04/09 14:55:37;;;;;;;27.73;4.28;;;17.80;57.30;;;;;;10499493;28;20554;-63
2021/04/09 15:00:37;;;;;;;31.95;4.38;;;17.80;57.80;;;;;;10478450;28;20059;-63
2021/04/09 15:05:38;;;;;;;18.70;3.55;;;17.80;57.80;;;;;;10497460;28;20036;-61
2021/04/09 15:10:39;;;;;;;23.45;4.18;;;17.80;57.70;;;;;;10502294;28;20473;-62
2021/04/09 15:15:40;;;;;;;21.35;2.85;;;17.80;57.70;;;;;;10501604;28;20115;-62
2021/04/09 15:20:42;;;;;;;16.88;3.00;;;17.80;57.70;;;;;;10502506;28;20032;-67
2021/04/09 15:25:42;;;;;;;18.30;3.35;;;17.90;58.00;;;;;;10499103;28;20067;-64
2021/04/09 15:30:43;;;;;;;29.45;4.05;;;17.90;58.00;;;;;;10501603;28;20469;-62
2021/04/09 15:35:44;;;;;;;17.55;3.42;;;17.90;58.10;;;;;;10475568;28;20431;-65
2021/04/09 15:40:45;;;;;;;16.35;3.13;;;17.90;58.10;;;;;;10478349;28;20392;-61
2021/04/09 15:45:46;;;;;;;18.52;2.75;;;17.90;57.90;;;;;;10481953;28;20546;-61
2021/04/09 15:50:47;;;;;;;14.43;3.67;;;18.00;58.30;;;;;;10499839;28;20028;-58
2021/04/09 15:55:48;;;;;;;11.90;2.83;;;18.10;57.70;;;;;;10501193;28;21466;-60
2021/04/09 16:00:49;;;;;;;13.57;2.65;;;18.00;57.50;;;;;;10499555;28;20040;-58
2021/04/09 16:05:49;;;;;;;19.33;3.38;;;17.90;56.90;;;;;;10501254;28;20054;-61
2021/04/09 16:10:50;;;;;;;19.02;3.42;;;17.80;56.30;;;;;;10500580;28;20108;-59
2021/04/09 16:15:51;;;;;;;11.00;3.08;;;17.90;56.20;;;;;;10482966;28;20471;-61
2021/04/09 16:20:52;;;;;;;5.85;2.40;;;17.80;55.50;;;;;;10482133;28;20432;-59
2021/04/09 16:25:53;;;;;;;14.40;2.35;;;17.90;58.30;;;;;;10482339;28;20111;-58
2021/04/09 16:30:57;;;;;;;13.15;2.70;;;18.00;58.20;;;;;;10499488;28;20036;-60
2021/04/09 16:35:58;;;;;;;7.70;1.77;;;18.00;58.00;;;;;;10481893;28;20099;-61
2021/04/09 16:40:59;;;;;;;9.27;2.10;;;18.00;57.60;;;;;;10498715;28;20468;-60
2021/04/09 16:46:00;;;;;;;18.55;2.53;;;18.00;57.50;;;;;;10498582;28;20024;-63
2021/04/09 16:51:02;;;;;;;9.18;2.50;;;18.00;58.00;;;;;;10498671;28;20028;-61
2021/04/09 16:56:04;;;;;;;7.75;2.63;;;18.00;57.60;;;;;;10481742;28;20036;-59
2021/04/09 17:01:07;;;;;;;12.70;2.13;;;17.90;58.00;;;;;;10498516;28;20107;-61
2021/04/09 17:06:08;;;;;;;11.95;1.95;;;17.80;58.20;;;;;;10480720;28;20028;-61
2021/04/09 17:11:09;;;;;;;7.97;1.52;;;17.90;58.40;;;;;;10497830;28;20025;-60
2021/04/09 17:16:10;;;;;;;8.95;1.50;;;17.80;58.10;;;;;;10480461;28;20034;-60
2021/04/09 17:21:10;;;;;;;7.28;1.50;;;17.80;57.70;;;;;;10471105;28;20036;-59
2021/04/09 17:26:11;;;;;;;8.93;1.65;;;17.80;57.30;;;;;;10496712;28;20032;-67
2021/04/09 17:31:12;;;;;;;10.55;1.75;;;17.80;57.20;;;;;;10473045;28;20038;-61
2021/04/09 17:36:13;;;;;;;4.65;1.13;;;17.80;57.00;;;;;;10495710;28;20051;-61
2021/04/09 17:41:13;;;;;;;7.20;1.58;;;17.80;56.80;;;;;;10496417;28;20028;-63
2021/04/09 17:46:14;;;;;;;9.35;1.60;;;17.80;56.50;;;;;;10496226;28;20040;-60
2021/04/09 17:51:17;;;;;;;11.07;2.10;;;17.80;56.40;;;;;;10476903;28;20028;-61
2021/04/09 17:56:18;;;;;;;3.50;1.45;;;17.80;56.40;;;;;;10496578;28;20028;-63
2021/04/09 18:01:18;;;;;;;11.65;1.85;;;17.80;56.50;;;;;;10464604;28;20036;-61
2021/04/09 18:06:19;;;;;;;9.88;2.58;;;17.90;56.70;;;;;;10469310;28;20083;-61
2021/04/09 18:11:20;;;;;;;11.48;1.40;;;17.90;56.90;;;;;;10463290;28;20029;-61
2021/04/09 18:16:20;;;;;;;4.20;1.27;;;17.80;57.00;;;;;;10454155;28;20402;-61
2021/04/09 18:21:23;;;;;;;4.85;1.02;;;17.90;56.60;;;;;;10461792;28;20039;-61
2021/04/09 18:26:24;;;;;;;6.20;1.02;;;18.00;56.30;;;;;;10471928;28;20385;-60
2021/04/09 18:31:24;;;;;;;8.32;1.20;;;18.00;56.30;;;;;;10464883;28;20111;-60
2021/04/09 18:36:25;;;;;;;5.60;1.60;;;18.00;56.00;;;;;;10451980;28;20060;-61
2021/04/09 18:41:26;;;;;;;5.00;1.35;;;18.00;55.90;;;;;;10463144;28;20041;-61
2021/04/09 18:46:28;;;;;;;6.85;1.92;;;18.00;55.90;;;;;;10463442;28;20473;-61
2021/04/09 18:51:29;;;;;;;6.07;1.40;;;18.00;55.90;;;;;;10465149;28;20029;-61
2021/04/09 18:56:30;;;;;;;3.90;1.13;;;18.00;55.90;;;;;;10468568;28;20122;-61
2021/04/09 19:01:30;;;;;;;8.75;1.25;;;18.00;55.90;;;;;;10458178;28;20432;-60
2021/04/09 19:06:31;;;;;;;5.72;1.38;;;18.10;55.80;;;;;;10432606;28;20112;-63
2021/04/09 19:11:32;;;;;;;6.03;1.20;;;18.10;55.80;;;;;;10462146;28;20094;-63
2021/04/09 19:16:33;;;;;;;3.70;1.27;;;18.10;55.70;;;;;;10500332;28;20036;-63
2021/04/09 19:21:34;;;;;;;3.60;1.08;;;18.10;55.70;;;;;;10493218;28;20495;-63
2021/04/09 19:26:35;;;;;;;4.18;1.27;;;18.10;55.80;;;;;;10501101;28;20116;-62
2021/04/09 19:31:36;;;;;;;5.10;1.17;;;18.10;56.00;;;;;;10502295;28;20370;-62
2021/04/09 19:36:37;;;;;;;5.00;1.10;;;18.10;55.90;;;;;;10501980;28;20044;-62
2021/04/09 19:41:37;;;;;;;2.85;1.13;;;18.00;55.60;;;;;;10501845;28;20119;-61
2021/04/09 19:46:38;;;;;;;5.00;1.27;;;18.00;55.60;;;;;;10501634;28;20488;-60
2021/04/09 19:51:39;;;;;;;6.20;1.40;;;18.00;55.60;;;;;;10470568;28;20418;-61
2021/04/09 19:56:40;;;;;;;5.75;1.27;;;17.90;55.50;;;;;;10483674;28;20103;-61
2021/04/09 20:01:40;;;;;;;2.90;1.00;;;17.90;55.60;;;;;;10483111;28;20032;-61
2021/04/09 20:06:41;;;;;;;6.10;1.55;;;17.80;55.40;;;;;;10483316;28;20028;-61
2021/04/09 20:11:42;;;;;;;3.00;1.17;;;17.80;55.50;;;;;;10482753;28;20112;-61
2021/04/09 20:16:43;;;;;;;7.88;1.30;;;17.80;55.50;;;;;;10483287;28;20028;-61
2021/04/09 20:21:43;;;;;;;4.47;1.15;;;17.80;55.50;;;;;;10500602;28;20042;-61
2021/04/09 20:26:46;;;;;;;1.80;0.88;;;17.80;55.50;;;;;;10500452;28;20025;-61
2021/04/09 20:31:46;;;;;;;2.55;0.90;;;17.70;55.40;;;;;;10481824;28;20028;-61
2021/04/09 20:36:47;;;;;;;2.90;0.98;;;17.70;55.40;;;;;;10481928;28;20634;-62
2021/04/09 20:41:48;;;;;;;5.18;1.05;;;17.70;55.40;;;;;;10499672;28;20042;-61
2021/04/09 20:46:48;;;;;;;2.00;0.80;;;17.70;55.40;;;;;;10498850;28;20028;-61
2021/04/09 20:51:49;;;;;;;3.08;1.08;;;17.60;55.40;;;;;;10498924;28;20112;-61
2021/04/09 20:56:50;;;;;;;2.55;1.55;;;17.60;55.40;;;;;;10499166;28;20103;-61
2021/04/09 21:01:51;;;;;;;2.20;1.45;;;17.60;55.40;;;;;;10498801;28;20036;-61
2021/04/09 21:06:52;;;;;;;3.70;1.45;;;17.60;55.50;;;;;;10498643;28;20381;-61
2021/04/09 21:11:56;;;;;;;2.22;1.02;;;17.60;55.30;;;;;;10498066;28;20111;-62
2021/04/09 21:16:57;;;;;;;2.42;1.10;;;17.60;55.20;;;;;;10498495;28;20032;-61
2021/04/09 21:21:58;;;;;;;3.22;0.90;;;17.60;55.10;;;;;;10474579;28;20040;-61
2021/04/09 21:26:59;;;;;;;3.53;2.03;;;17.60;55.00;;;;;;10497902;28;20047;-61
2021/04/09 21:32:00;;;;;;;3.25;1.20;;;17.60;54.80;;;;;;10497296;28;20388;-61
2021/04/09 21:37:01;;;;;;;3.20;1.30;;;17.60;54.80;;;;;;10497500;28;20045;-62
2021/04/09 21:42:02;;;;;;;3.88;1.65;;;17.60;54.70;;;;;;10497304;28;20417;-62
2021/04/09 21:47:05;;;;;;;2.50;1.25;;;17.60;54.60;;;;;;10497371;28;20036;-61
2021/04/09 21:52:05;;;;;;;2.47;1.20;;;17.60;54.60;;;;;;10479084;28;20021;-61
2021/04/09 21:57:06;;;;;;;4.72;1.60;;;17.60;54.50;;;;;;10496209;28;20065;-61
2021/04/09 22:02:07;;;;;;;5.88;1.75;;;17.60;54.50;;;;;;10497156;28;20039;-60
2021/04/09 22:07:09;;;;;;;4.60;1.85;;;17.60;54.40;;;;;;10478658;28;20090;-61
2021/04/09 22:12:11;;;;;;;4.63;1.50;;;17.70;54.40;;;;;;10486176;28;20024;-62
2021/04/09 22:17:12;;;;;;;3.17;1.27;;;17.70;54.30;;;;;;10496385;28;20048;-62
2021/04/09 22:22:13;;;;;;;3.75;1.45;;;17.70;54.20;;;;;;10496819;28;20059;-61
2021/04/09 22:27:14;;;;;;;2.33;1.27;;;17.70;54.10;;;;;;10496049;28;20098;-61
2021/04/09 22:32:15;;;;;;;3.15;1.58;;;17.70;54.00;;;;;;10496475;28;20074;-61
2021/04/09 22:37:15;;;;;;;3.47;1.42;;;17.70;53.90;;;;;;10496024;28;20135;-61
2021/04/09 22:42:16;;;;;;;1.50;1.25;;;17.70;53.90;;;;;;10496241;28;20485;-61
2021/04/09 22:47:17;;;;;;;2.03;1.25;;;17.70;53.80;;;;;;10477426;28;20480;-61
2021/04/09 22:52:17;;;;;;;2.47;1.55;;;17.70;53.70;;;;;;10467398;28;20478;-61
2021/04/09 22:57:18;;;;;;;2.83;1.30;;;17.70;53.70;;;;;;10495639;28;20115;-61
2021/04/09 23:02:19;;;;;;;4.53;2.22;;;17.70;53.70;;;;;;10496091;28;20036;-61
2021/04/09 23:07:20;;;;;;;3.22;1.50;;;17.70;53.70;;;;;;10495926;28;20512;-61
2021/04/09 23:12:21;;;;;;;2.33;1.50;;;17.70;53.60;;;;;;10503654;28;20416;-61
2021/04/09 23:17:22;;;;;;;1.98;1.50;;;17.70;53.60;;;;;;10484602;28;20039;-61
2021/04/09 23:22:22;;;;;;;2.67;1.58;;;17.70;53.60;;;;;;10503086;28;20026;-61
2021/04/09 23:27:23;;;;;;;2.65;1.58;;;17.70;53.50;;;;;;10502224;28;20061;-61
2021/04/09 23:32:24;;;;;;;2.08;1.50;;;17.70;53.50;;;;;;10502670;28;20020;-62
2021/04/09 23:37:24;;;;;;;2.17;1.33;;;17.70;53.40;;;;;;10502010;28;20120;-61
2021/04/09 23:42:25;;;;;;;3.13;1.65;;;17.70;53.30;;;;;;10484013;28;20115;-61
2021/04/09 23:47:26;;;;;;;3.03;1.30;;;17.70;53.30;;;;;;10501567;28;20032;-61
2021/04/09 23:52:27;;;;;;;2.13;1.42;;;17.80;53.20;;;;;;10501914;28;20411;-61
2021/04/09 23:57:27;;;;;;;3.08;1.40;;;17.70;53.10;;;;;;10501489;28;20040;-61
